Terminal Aerodrome Forecast
Issued by NWS

Home | Current Version | Previous Version | Text Only | Print | Product List | Glossary On
Versions: 1 2 3 4 5 6 7 8 9 10 11 12 13 14 15 16 17 18 19 20 21 22 23 24 25 26 27 28 29 30 31 32
000
FTUS43 KLOT 280752 AAA
TAFORD
TAF AMD
KORD 280752Z 2808/2912 22003KT P6SM VCTS SCT040 BKN080CB BKN250
     FM280900 VRB03KT P6SM FEW020 SCT250
     FM281100 VRB03KT 5SM BR FEW020 SCT250
     FM281500 07006KT P6SM SCT025 BKN250
     FM290400 08003KT 5SM BR SCT015 SCT250=

USA.gov is the U.S. government's official web portal to all federal, state and local government web resources and services.